Time;durP1;ratioP1;P1;durP2;ratioP2;P2;SDS_P1;SDS_P2;PMS_P1;PMS_P2;Temp;Humidity;BMP_temperature;BMP_pressure;BME280_temperature;BME280_humidity;BME280_pressure;Samples;Min_cycle;Max_cycle;Signal;HPM_P1;HPM_P2
2022/05/20 00:02:13;;;;;;;1999.90;999.90;;;18.30;99.90;;;;;;5073298;28;20204;-69
2022/05/20 00:04:38;;;;;;;1999.90;999.90;;;18.40;99.90;;;;;;5073193;28;20172;-69
2022/05/20 00:07:05;;;;;;;1999.90;999.90;;;18.40;99.90;;;;;;5073720;28;20186;-69
2022/05/20 00:09:30;;;;;;;1999.90;999.90;;;18.40;99.90;;;;;;5073805;28;20226;-69
2022/05/20 00:11:56;;;;;;;1999.90;999.90;;;18.40;99.90;;;;;;5073766;28;20415;-69
2022/05/20 00:14:21;;;;;;;1999.90;999.90;;;18.50;99.90;;;;;;5073751;28;20204;-69
2022/05/20 00:16:47;;;;;;;1999.90;999.90;;;18.50;99.90;;;;;;5073585;28;20716;-69
2022/05/20 00:19:13;;;;;;;1999.90;999.90;;;18.50;99.90;;;;;;5073968;28;20211;-69
2022/05/20 00:21:39;;;;;;;1999.90;999.90;;;18.40;99.90;;;;;;5073416;28;20197;-69
2022/05/20 00:24:04;;;;;;;1999.90;999.90;;;18.40;99.90;;;;;;5072305;28;20263;-70
2022/05/20 00:26:30;;;;;;;1999.90;999.90;;;18.30;99.90;;;;;;5072256;28;20297;-70
2022/05/20 00:28:56;;;;;;;1999.90;999.90;;;18.30;99.90;;;;;;5072432;28;20179;-70
2022/05/20 00:31:24;;;;;;;1999.90;999.90;;;18.30;99.90;;;;;;5072295;28;20303;-70
2022/05/20 00:33:50;;;;;;;1999.90;999.90;;;18.20;99.90;;;;;;5072960;28;20246;-70
2022/05/20 00:36:16;;;;;;;1999.90;999.90;;;18.00;99.90;;;;;;5073199;28;20483;-69
2022/05/20 00:38:42;;;;;;;1999.90;999.90;;;17.90;99.90;;;;;;5072497;28;20401;-70
2022/05/20 00:41:09;;;;;;;1999.90;999.90;;;17.90;99.90;;;;;;5072481;28;20903;-70
2022/05/20 00:43:41;;;;;;;1999.90;999.90;;;17.90;99.90;;;;;;5072303;28;20167;-70
2022/05/20 00:46:16;;;;;;;1999.90;999.90;;;17.80;99.90;;;;;;5072216;28;20512;-70
2022/05/20 00:48:43;;;;;;;1999.90;999.90;;;17.90;99.90;;;;;;5072604;28;20405;-70
2022/05/20 00:51:14;;;;;;;1999.90;999.90;;;17.90;99.90;;;;;;5072245;28;20398;-69
2022/05/20 00:53:54;;;;;;;1999.90;999.90;;;17.90;99.90;;;;;;5072974;28;20416;-69
2022/05/20 00:56:25;;;;;;;1999.90;999.90;;;17.80;99.90;;;;;;5072834;28;20443;-69
2022/05/20 00:58:52;;;;;;;1999.90;999.90;;;17.70;99.90;;;;;;5072414;28;20403;-69
2022/05/20 01:01:19;;;;;;;1999.90;999.90;;;17.60;99.90;;;;;;5072199;28;20914;-70
2022/05/20 01:03:46;;;;;;;1999.90;999.90;;;17.60;99.90;;;;;;5072805;28;20419;-70
2022/05/20 01:06:11;;;;;;;1999.90;999.90;;;17.50;99.90;;;;;;5072990;28;20429;-69
2022/05/20 01:08:39;;;;;;;1999.90;999.90;;;17.50;99.90;;;;;;5073492;28;20959;-69
2022/05/20 01:11:04;;;;;;;1999.90;999.90;;;17.40;99.90;;;;;;5073735;28;20205;-69
2022/05/20 01:13:31;;;;;;;1999.90;999.90;;;17.40;99.90;;;;;;5073768;28;20420;-69
2022/05/20 01:16:02;;;;;;;1999.90;999.90;;;17.30;99.90;;;;;;5073325;28;20200;-69
2022/05/20 01:18:31;;;;;;;1999.90;999.90;;;17.30;99.90;;;;;;5073621;28;20411;-69
2022/05/20 01:20:57;;;;;;;1999.90;999.90;;;17.20;99.90;;;;;;5074059;28;20412;-69
2022/05/20 01:23:26;;;;;;;1999.90;999.90;;;17.10;99.90;;;;;;5073271;28;20577;-69
2022/05/20 01:25:54;;;;;;;1999.90;999.90;;;17.10;99.90;;;;;;5072458;28;20217;-69
2022/05/20 01:28:21;;;;;;;1999.90;999.90;;;17.10;99.90;;;;;;5073372;28;20412;-69
2022/05/20 01:30:58;;;;;;;1999.90;999.90;;;17.20;99.90;;;;;;5073425;28;21145;-69
2022/05/20 01:33:33;;;;;;;1999.90;999.90;;;17.10;99.90;;;;;;5074486;28;20404;-69
2022/05/20 01:36:02;;;;;;;1999.90;999.90;;;17.20;99.90;;;;;;5072898;28;20424;-69
2022/05/20 01:38:28;;;;;;;1999.90;999.90;;;17.10;99.90;;;;;;5072475;28;20425;-69
2022/05/20 01:41:07;;;;;;;1999.90;999.90;;;17.20;99.90;;;;;;5072586;28;20412;-69
2022/05/20 01:43:49;;;;;;;1999.90;999.90;;;17.20;99.90;;;;;;5072237;28;20397;-69
2022/05/20 01:46:21;;;;;;;1999.90;999.90;;;17.20;99.90;;;;;;5071827;28;20431;-69
2022/05/20 01:49:11;;;;;;;1999.90;999.90;;;17.40;99.90;;;;;;5072529;28;20760;-69
2022/05/20 01:51:45;;;;;;;1999.90;999.90;;;17.40;99.90;;;;;;5072502;28;20416;-69
2022/05/20 01:54:22;;;;;;;1999.90;999.90;;;17.40;99.90;;;;;;5071904;28;20463;-69
2022/05/20 01:56:54;;;;;;;1999.90;999.90;;;17.40;99.90;;;;;;5072085;28;20423;-70
2022/05/20 01:59:40;;;;;;;1999.90;999.90;;;17.40;99.90;;;;;;5071868;28;20401;-70
2022/05/20 02:02:11;;;;;;;1999.90;999.90;;;17.50;99.90;;;;;;5071966;28;20395;-69
2022/05/20 02:04:46;;;;;;;1999.90;999.90;;;17.50;99.90;;;;;;5075774;28;20412;-69
2022/05/20 02:07:19;;;;;;;1999.90;999.90;;;17.50;99.90;;;;;;5076328;28;20445;-69
2022/05/20 02:09:51;;;;;;;1999.90;999.90;;;17.40;99.90;;;;;;5076074;28;20434;-69
2022/05/20 02:12:22;;;;;;;1999.90;999.90;;;17.30;99.90;;;;;;5076140;28;20941;-69
2022/05/20 02:15:00;;;;;;;1999.90;999.90;;;17.30;99.90;;;;;;5075659;28;20456;-69
2022/05/20 02:17:36;;;;;;;1999.90;999.90;;;17.30;99.90;;;;;;5076083;28;20418;-69
2022/05/20 02:20:11;;;;;;;1999.90;999.90;;;17.30;99.90;;;;;;5075282;28;20771;-70
2022/05/20 02:22:46;;;;;;;1999.90;999.90;;;17.30;99.90;;;;;;5075134;28;20391;-69
2022/05/20 02:25:15;;;;;;;1999.90;999.90;;;17.40;99.90;;;;;;5074632;28;20402;-69
2022/05/20 02:27:45;;;;;;;1999.90;999.90;;;17.30;99.90;;;;;;5075473;28;20534;-69
2022/05/20 02:30:14;;;;;;;1999.90;999.90;;;17.30;99.90;;;;;;5075305;28;20411;-69
2022/05/20 02:33:20;;;;;;;1999.90;999.90;;;17.30;99.90;;;;;;5075279;28;20399;-69
2022/05/20 02:35:46;;;;;;;1999.90;999.90;;;17.40;99.90;;;;;;5040516;28;20510;-70
2022/05/20 02:38:13;;;;;;;1999.90;999.90;;;17.50;99.90;;;;;;5075041;28;20410;-70
2022/05/20 02:40:41;;;;;;;1999.90;999.90;;;17.50;99.90;;;;;;5075175;28;20198;-70
2022/05/20 02:43:07;;;;;;;1999.90;999.90;;;17.50;99.90;;;;;;5075087;28;20991;-69
2022/05/20 02:45:33;;;;;;;1999.90;999.90;;;17.50;99.90;;;;;;5075710;28;20430;-69
2022/05/20 02:47:58;;;;;;;1999.90;999.90;;;17.40;99.90;;;;;;5075888;28;20220;-69
2022/05/20 02:50:24;;;;;;;1999.90;999.90;;;17.30;99.90;;;;;;5075294;28;20415;-69
2022/05/20 02:52:50;;;;;;;1999.90;999.90;;;17.40;99.90;;;;;;5074630;28;20166;-69
2022/05/20 02:55:16;;;;;;;1999.90;999.90;;;17.40;99.90;;;;;;5073892;28;20199;-69
2022/05/20 02:57:44;;;;;;;1999.90;999.90;;;17.50;99.90;;;;;;5074190;28;20503;-69
2022/05/20 03:05:39;;;;;;;1999.90;999.90;;;17.60;99.90;;;;;;5074017;28;20401;-69
2022/05/20 03:08:05;;;;;;;1999.90;999.90;;;17.60;99.90;;;;;;5074087;28;20411;-69
2022/05/20 03:10:31;;;;;;;1999.90;999.90;;;17.70;99.90;;;;;;5074065;28;20419;-69
2022/05/20 03:13:01;;;;;;;1999.90;999.90;;;17.80;99.90;;;;;;5073495;28;20167;-70
2022/05/20 03:15:26;;;;;;;1999.90;999.90;;;17.80;99.90;;;;;;5073536;28;20456;-69
2022/05/20 03:17:52;;;;;;;1999.90;999.90;;;17.80;99.90;;;;;;5073772;28;20426;-68
2022/05/20 03:20:18;;;;;;;1999.90;999.90;;;17.80;99.90;;;;;;5073872;28;20250;-70
2022/05/20 03:22:43;;;;;;;1999.90;999.90;;;17.80;99.90;;;;;;5073822;28;20172;-70
2022/05/20 03:25:09;;;;;;;1999.90;999.90;;;17.80;99.90;;;;;;5073527;28;20173;-70
2022/05/20 03:27:35;;;;;;;1999.90;999.90;;;17.80;99.90;;;;;;5073416;28;20265;-70
2022/05/20 03:30:00;;;;;;;1999.90;999.90;;;17.90;99.90;;;;;;5073648;28;20915;-70
2022/05/20 03:32:26;;;;;;;1999.90;999.90;;;17.80;99.90;;;;;;5073587;28;20177;-70
2022/05/20 03:34:54;;;;;;;1999.90;999.90;;;17.80;99.90;;;;;;5072848;28;20198;-70
2022/05/20 03:37:19;;;;;;;1999.90;999.90;;;17.80;99.90;;;;;;5073447;28;20418;-69
2022/05/20 03:39:45;;;;;;;1999.90;999.90;;;17.90;99.90;;;;;;5073772;28;20439;-69
2022/05/20 03:42:11;;;;;;;1999.90;999.90;;;17.90;99.90;;;;;;5073526;28;20170;-69
2022/05/20 03:44:36;;;;;;;1999.90;999.90;;;17.90;99.90;;;;;;5073296;28;20466;-70
2022/05/20 03:47:02;;;;;;;1999.90;999.90;;;17.90;99.90;;;;;;5073392;28;20279;-70
2022/05/20 03:49:28;;;;;;;1999.90;999.90;;;17.90;99.90;;;;;;5073378;28;20173;-70
2022/05/20 03:51:56;;;;;;;1999.90;999.90;;;18.00;99.90;;;;;;5073371;28;20408;-70
2022/05/20 03:54:25;;;;;;;1999.90;999.90;;;18.00;99.90;;;;;;5072808;28;20477;-69
2022/05/20 03:56:50;;;;;;;1999.90;999.90;;;18.00;99.90;;;;;;5072928;28;20422;-70
2022/05/20 03:59:16;;;;;;;1999.90;999.90;;;17.90;99.90;;;;;;5073108;28;20453;-70
2022/05/20 04:01:58;;;;;;;1999.90;999.90;;;17.80;99.90;;;;;;5073015;28;20197;-70
2022/05/20 04:04:25;;;;;;;1999.90;999.90;;;17.80;99.90;;;;;;5072813;28;20174;-69
2022/05/20 04:06:51;;;;;;;1999.90;999.90;;;17.70;99.90;;;;;;5072942;28;20421;-70
2022/05/20 04:09:17;;;;;;;1999.90;999.90;;;17.70;99.90;;;;;;5072800;28;20408;-70
2022/05/20 04:11:42;;;;;;;1999.90;999.90;;;17.70;99.90;;;;;;5072873;28;20175;-70
2022/05/20 04:14:09;;;;;;;1999.90;999.90;;;17.70;99.90;;;;;;5072474;28;20200;-70
2022/05/20 04:16:34;;;;;;;1999.90;999.90;;;17.80;99.90;;;;;;5072619;28;20183;-70
2022/05/20 04:19:00;;;;;;;1999.90;999.90;;;17.80;99.90;;;;;;5072691;28;20769;-69
2022/05/20 04:21:25;;;;;;;1999.90;999.90;;;17.90;99.90;;;;;;5072606;28;20165;-70
2022/05/20 04:23:51;;;;;;;1999.90;999.90;;;17.90;99.90;;;;;;5072600;28;20261;-69
2022/05/20 04:26:17;;;;;;;1999.90;999.90;;;18.00;99.90;;;;;;5071449;28;20207;-69
2022/05/20 04:28:43;;;;;;;1999.90;999.90;;;18.00;99.90;;;;;;5104523;22;20222;-69
2022/05/20 04:31:10;;;;;;;1999.90;999.90;;;18.00;99.90;;;;;;5052474;28;20470;-69
2022/05/20 04:33:36;;;;;;;1999.90;999.90;;;18.00;99.90;;;;;;5052364;28;20517;-69
2022/05/20 04:36:05;;;;;;;1999.90;999.90;;;18.00;99.90;;;;;;5051729;28;20779;-69
2022/05/20 04:38:31;;;;;;;1999.90;999.90;;;18.10;99.90;;;;;;5052416;28;21012;-69
2022/05/20 04:49:11;;;;;;;1999.90;999.90;;;18.10;99.90;;;;;;5052520;28;20436;-69
2022/05/20 04:51:40;;;;;;;1999.90;999.90;;;18.20;99.90;;;;;;5052317;28;20405;-69
2022/05/20 04:56:52;;;;;;;1999.90;999.90;;;18.30;99.90;;;;;;5052066;28;20461;-69
2022/05/20 04:59:20;;;;;;;1999.90;999.90;;;18.30;99.90;;;;;;5051974;28;20429;-69
2022/05/20 05:01:46;;;;;;;1999.90;999.90;;;18.30;99.90;;;;;;5052051;28;20401;-69
2022/05/20 05:04:11;;;;;;;1999.90;999.90;;;18.40;99.90;;;;;;5051692;28;20901;-69
2022/05/20 05:06:37;;;;;;;1999.90;999.90;;;18.40;99.90;;;;;;5052040;28;20456;-69
2022/05/20 05:09:03;;;;;;;1999.90;999.90;;;18.40;99.90;;;;;;5051839;28;20186;-69
2022/05/20 05:11:29;;;;;;;1999.90;999.90;;;18.40;99.90;;;;;;5051942;28;20175;-69
2022/05/20 05:13:55;;;;;;;1999.90;999.90;;;18.40;99.90;;;;;;5051682;28;20975;-69
2022/05/20 05:16:21;;;;;;;1999.90;999.90;;;18.40;99.90;;;;;;5051521;28;20874;-69
2022/05/20 05:18:47;;;;;;;1999.90;999.90;;;18.40;99.90;;;;;;5051789;28;20707;-70
2022/05/20 05:21:14;;;;;;;1999.90;999.90;;;18.50;99.90;;;;;;5051954;28;20566;-69
2022/05/20 05:23:40;;;;;;;1999.90;999.90;;;18.50;99.90;;;;;;5051692;28;20396;-70
2022/05/20 05:26:06;;;;;;;1999.90;999.90;;;18.50;99.90;;;;;;5051479;28;20817;-69
2022/05/20 05:28:31;;;;;;;1999.90;999.90;;;18.50;99.90;;;;;;5051579;28;20211;-70
2022/05/20 05:30:58;;;;;;;1999.90;999.90;;;18.50;99.90;;;;;;5051672;28;20420;-69
2022/05/20 05:33:24;;;;;;;1999.90;999.90;;;18.50;99.90;;;;;;5051677;28;20169;-70
2022/05/20 05:35:50;;;;;;;1999.90;999.90;;;18.60;99.90;;;;;;5050895;28;20462;-70
2022/05/20 05:38:15;;;;;;;1999.90;999.90;;;18.50;99.90;;;;;;5055369;28;20714;-69
2022/05/20 05:40:41;;;;;;;1999.90;999.90;;;18.60;99.90;;;;;;5055660;28;20964;-70
2022/05/20 05:43:07;;;;;;;1999.90;999.90;;;18.70;99.90;;;;;;5055611;28;20175;-70
2022/05/20 05:45:34;;;;;;;1999.90;999.90;;;18.90;99.90;;;;;;5055277;28;20211;-69
2022/05/20 05:48:07;;;;;;;1999.90;999.90;;;19.00;99.90;;;;;;5055511;28;20201;-70
2022/05/20 05:50:38;;;;;;;1999.90;999.90;;;19.20;99.90;;;;;;5055369;28;20410;-69
2022/05/20 05:53:09;;;;;;;1999.90;999.90;;;19.30;99.90;;;;;;5055446;28;20407;-70
2022/05/20 05:55:35;;;;;;;1999.90;999.90;;;19.40;99.90;;;;;;5055006;28;20445;-70
2022/05/20 05:58:01;;;;;;;1999.90;999.90;;;19.60;99.90;;;;;;5055292;28;20488;-69
2022/05/20 06:00:26;;;;;;;1999.90;999.90;;;19.70;99.90;;;;;;5055363;28;20414;-69
2022/05/20 06:02:53;;;;;;;1999.90;999.90;;;19.80;99.90;;;;;;5055234;28;20684;-70
2022/05/20 06:05:19;;;;;;;1999.90;999.90;;;19.90;99.90;;;;;;5054915;28;20225;-69
2022/05/20 06:07:45;;;;;;;1999.90;999.90;;;20.00;99.90;;;;;;5055057;28;20800;-69
2022/05/20 06:10:11;;;;;;;1999.90;999.90;;;19.90;99.90;;;;;;5055116;28;20854;-69
2022/05/20 06:12:36;;;;;;;1999.90;999.90;;;19.90;99.90;;;;;;5055124;28;20443;-69
2022/05/20 06:15:08;;;;;;;1999.90;999.90;;;19.90;99.90;;;;;;5054739;28;20492;-69
2022/05/20 06:17:34;;;;;;;1999.90;999.90;;;19.90;99.90;;;;;;5054901;28;20232;-69
2022/05/20 06:20:00;;;;;;;1999.90;999.90;;;19.80;99.90;;;;;;5054997;28;20438;-69
2022/05/20 06:22:26;;;;;;;1999.90;999.90;;;19.80;99.90;;;;;;5054872;28;20171;-69
2022/05/20 06:24:52;;;;;;;1999.90;999.90;;;19.80;99.90;;;;;;5054630;28;20402;-69
2022/05/20 06:27:18;;;;;;;1999.90;999.90;;;19.80;99.90;;;;;;5055003;28;20567;-69
2022/05/20 06:29:50;;;;;;;1999.90;999.90;;;19.80;99.90;;;;;;5054712;28;21002;-69
2022/05/20 06:32:16;;;;;;;1999.90;999.90;;;19.90;99.90;;;;;;5054791;28;20240;-69
2022/05/20 06:40:18;;;;;;;1999.90;999.90;;;20.00;99.90;;;;;;5054917;28;20905;-69
2022/05/20 06:42:44;;;;;;;1999.90;999.90;;;20.00;99.90;;;;;;5054478;28;20409;-69
2022/05/20 06:45:11;;;;;;;1999.90;999.90;;;20.20;99.90;;;;;;5054212;28;20432;-69
2022/05/20 06:47:37;;;;;;;1999.90;999.90;;;20.30;99.90;;;;;;5053976;28;20175;-69
2022/05/20 06:50:03;;;;;;;1999.90;999.90;;;20.30;99.90;;;;;;5054031;28;20920;-69
2022/05/20 06:52:29;;;;;;;1999.90;999.90;;;20.30;99.90;;;;;;5054325;28;20469;-69
2022/05/20 06:54:55;;;;;;;1999.90;999.90;;;20.30;99.90;;;;;;5053986;28;21007;-69
2022/05/20 06:57:22;;;;;;;1999.90;999.90;;;20.30;99.90;;;;;;5054284;28;20181;-69
2022/05/20 06:59:47;;;;;;;1999.90;999.90;;;20.20;99.90;;;;;;5054179;28;20649;-69
2022/05/20 07:02:13;;;;;;;1999.90;999.90;;;20.30;99.90;;;;;;5054111;28;20532;-69
2022/05/20 07:04:39;;;;;;;1999.90;999.90;;;20.30;99.90;;;;;;5053833;28;20167;-69
2022/05/20 07:07:05;;;;;;;1999.90;999.90;;;20.30;99.90;;;;;;5054118;28;20431;-69
2022/05/20 07:09:32;;;;;;;1999.90;999.90;;;20.30;99.90;;;;;;5053972;28;20547;-69
2022/05/20 07:11:58;;;;;;;1999.90;999.90;;;20.30;99.90;;;;;;5054032;28;20406;-69
2022/05/20 07:14:24;;;;;;;1999.90;999.90;;;20.30;99.90;;;;;;5053637;28;20449;-69
2022/05/20 07:16:50;;;;;;;1999.90;999.90;;;20.30;99.90;;;;;;5053825;28;20404;-69
2022/05/20 07:19:16;;;;;;;1999.90;999.90;;;20.30;99.90;;;;;;5053813;28;20475;-69
2022/05/20 07:21:42;;;;;;;1999.90;999.90;;;20.20;99.90;;;;;;5053742;28;20164;-69
2022/05/20 07:24:08;;;;;;;1999.90;999.90;;;20.20;99.90;;;;;;5053540;28;20821;-69
2022/05/20 07:26:34;;;;;;;1999.90;999.90;;;20.20;99.90;;;;;;5053762;28;20170;-69
2022/05/20 07:29:00;;;;;;;1999.90;999.90;;;20.20;99.90;;;;;;5053485;28;20847;-69
2022/05/20 07:31:26;;;;;;;1999.90;999.90;;;20.10;99.90;;;;;;5053606;28;20505;-69
2022/05/20 07:33:52;;;;;;;1999.90;999.90;;;20.10;99.90;;;;;;5053372;28;20928;-69
2022/05/20 07:36:19;;;;;;;1999.90;999.90;;;20.20;99.90;;;;;;5052760;28;20377;-69
2022/05/20 07:38:45;;;;;;;1999.90;999.90;;;20.40;99.90;;;;;;5053374;28;20428;-69
2022/05/20 07:41:12;;;;;;;1999.90;999.90;;;20.60;99.90;;;;;;5053439;28;20410;-69
2022/05/20 07:43:38;;;;;;;1999.90;999.90;;;20.70;99.90;;;;;;5053446;28;20221;-69
2022/05/20 07:46:04;;;;;;;1999.90;999.90;;;20.80;99.90;;;;;;5053008;28;20887;-69
2022/05/20 07:48:30;;;;;;;1999.90;999.90;;;20.80;99.90;;;;;;5053253;28;20612;-69
2022/05/20 07:51:17;;;;;;;1999.90;999.90;;;20.80;99.90;;;;;;5053228;28;20414;-69
2022/05/20 07:53:50;;;;;;;1999.90;999.90;;;20.80;99.90;;;;;;5052935;28;20414;-69
2022/05/20 07:56:49;;;;;;;1999.90;999.90;;;20.80;99.90;;;;;;5052903;28;20395;-69
2022/05/20 07:59:27;;;;;;;1999.90;999.90;;;21.00;99.90;;;;;;5033670;28;21046;-69
2022/05/20 08:01:54;;;;;;;1999.90;999.90;;;21.20;99.90;;;;;;5053067;28;20404;-69
2022/05/20 08:07:16;;;;;;;1999.90;999.90;;;21.50;99.90;;;;;;5053045;28;20398;-70
2022/05/20 08:09:42;;;;;;;1999.90;999.90;;;21.70;99.90;;;;;;5052733;28;20399;-69
2022/05/20 08:12:09;;;;;;;1999.90;999.90;;;21.70;99.90;;;;;;5052914;28;20183;-70
2022/05/20 08:14:34;;;;;;;1999.90;999.90;;;21.70;99.90;;;;;;5052660;28;20194;-70
2022/05/20 08:17:02;;;;;;;1999.90;999.90;;;21.80;99.90;;;;;;5052621;28;20416;-70
2022/05/20 08:19:29;;;;;;;1999.90;999.90;;;22.00;99.90;;;;;;5052638;28;20198;-69
2022/05/20 08:21:55;;;;;;;1999.90;999.90;;;22.00;99.90;;;;;;5052748;28;20408;-70
2022/05/20 08:24:21;;;;;;;1999.90;999.90;;;22.10;99.90;;;;;;5052365;28;20383;-70
2022/05/20 08:26:47;;;;;;;1999.90;999.90;;;22.20;99.90;;;;;;5052569;28;20410;-70
2022/05/20 08:29:13;;;;;;;1999.90;999.90;;;22.50;99.90;;;;;;5052386;28;20424;-70
2022/05/20 08:31:40;;;;;;;1999.90;999.90;;;22.70;99.90;;;;;;5052711;28;20380;-70
2022/05/20 08:34:06;;;;;;;1999.90;999.90;;;22.90;99.90;;;;;;5052071;28;20535;-70
2022/05/20 08:36:32;;;;;;;1999.90;999.90;;;23.00;99.90;;;;;;5052473;28;20909;-69
2022/05/20 08:38:58;;;;;;;1999.90;999.90;;;23.10;99.90;;;;;;5052348;28;20648;-71
2022/05/20 08:41:36;;;;;;;1999.90;999.90;;;23.00;99.90;;;;;;5052391;28;20398;-70
2022/05/20 08:44:03;;;;;;;1999.90;999.90;;;23.10;99.90;;;;;;5052066;28;20620;-70
2022/05/20 08:46:28;;;;;;;1999.90;999.90;;;23.20;99.90;;;;;;5052251;28;20427;-70
2022/05/20 08:48:57;;;;;;;1999.90;999.90;;;23.30;99.90;;;;;;5052102;28;20970;-70
2022/05/20 08:51:28;;;;;;;1999.90;999.90;;;23.40;99.90;;;;;;5052238;28;20640;-70
2022/05/20 08:53:54;;;;;;;1999.90;999.90;;;23.30;99.90;;;;;;5052018;28;20892;-70
2022/05/20 08:56:25;;;;;;;1999.90;999.90;;;23.30;99.90;;;;;;5051846;28;20406;-70
2022/05/20 08:58:55;;;;;;;1999.90;999.90;;;23.10;99.90;;;;;;5052020;28;20902;-70
2022/05/20 09:01:33;;;;;;;1999.90;999.90;;;23.20;99.90;;;;;;5052000;28;20388;-69
2022/05/20 09:03:59;;;;;;;1999.90;999.90;;;23.10;99.90;;;;;;5051823;28;20391;-71
2022/05/20 09:06:25;;;;;;;1999.90;999.90;;;23.00;99.90;;;;;;5051908;28;20534;-70
2022/05/20 09:09:05;;;;;;;1999.90;999.90;;;23.00;99.90;;;;;;5051833;28;20404;-70
2022/05/20 09:11:31;;;;;;;1999.90;999.90;;;23.00;99.90;;;;;;5051523;28;20406;-70
2022/05/20 09:17:03;;;;;;;1999.90;999.90;;;23.10;99.90;;;;;;5051939;28;20546;-69
2022/05/20 09:19:29;;;;;;;1999.90;999.90;;;23.30;99.90;;;;;;5051677;28;20516;-69
2022/05/20 09:22:14;;;;;;;1999.90;999.90;;;23.60;99.90;;;;;;5051798;28;20482;-69
2022/05/20 09:24:44;;;;;;;1999.90;999.90;;;23.80;99.90;;;;;;5051472;28;20188;-69
2022/05/20 09:27:18;;;;;;;1999.90;999.90;;;23.90;99.90;;;;;;5051716;28;20417;-69
2022/05/20 09:29:55;;;;;;;1999.90;999.90;;;24.00;99.90;;;;;;5051576;28;20446;-69
2022/05/20 09:32:36;;;;;;;1999.90;999.90;;;24.00;99.90;;;;;;5051705;28;20393;-69
2022/05/20 09:35:13;;;;;;;1999.90;999.90;;;24.10;99.90;;;;;;5051268;28;20526;-69
2022/05/20 09:37:38;;;;;;;1999.90;999.90;;;24.20;99.90;;;;;;5051644;28;20417;-69
2022/05/20 09:40:31;;;;;;;1999.90;999.90;;;24.20;99.90;;;;;;5051624;28;20406;-69
2022/05/20 09:43:01;;;;;;;1999.90;999.90;;;24.30;99.90;;;;;;5051719;28;20508;-69
2022/05/20 09:45:27;;;;;;;1999.90;999.90;;;24.40;99.90;;;;;;5051381;28;20414;-69
2022/05/20 09:47:57;;;;;;;1999.90;999.90;;;24.60;99.90;;;;;;5051479;28;20483;-69
2022/05/20 09:50:28;;;;;;;1999.90;999.90;;;24.60;99.90;;;;;;5051593;28;20389;-69
2022/05/20 09:52:59;;;;;;;1999.90;999.90;;;24.60;99.90;;;;;;5051497;28;20402;-69
2022/05/20 09:55:31;;;;;;;1999.90;999.90;;;24.80;99.90;;;;;;5051204;28;20424;-69
2022/05/20 09:58:19;;;;;;;1999.90;999.90;;;25.00;99.90;;;;;;5051428;28;20422;-69
2022/05/20 10:00:52;;;;;;;1999.90;999.90;;;25.20;99.90;;;;;;5051496;28;20406;-69
2022/05/20 10:03:38;;;;;;;1999.90;999.90;;;25.40;99.90;;;;;;5051373;28;20375;-70
2022/05/20 10:06:21;;;;;;;1999.90;999.90;;;25.60;99.90;;;;;;5051174;28;20909;-69
2022/05/20 10:09:11;;;;;;;1999.90;999.90;;;25.70;99.90;;;;;;5051343;28;20422;-69
2022/05/20 10:11:48;;;;;;;1999.90;999.90;;;25.80;99.90;;;;;;5051309;28;20381;-69
2022/05/20 10:14:27;;;;;;;1999.90;999.90;;;26.00;99.90;;;;;;5050939;28;20420;-69
2022/05/20 10:17:11;;;;;;;1999.90;999.90;;;26.20;99.90;;;;;;5051245;28;20417;-68
2022/05/20 10:20:01;;;;;;;1999.90;999.90;;;26.30;99.90;;;;;;5029642;28;20430;-70
2022/05/20 10:22:41;;;;;;;1999.90;999.90;;;26.40;99.90;;;;;;5030465;28;20377;-70
2022/05/20 10:25:14;;;;;;;1999.90;999.90;;;26.60;99.90;;;;;;5033486;28;20380;-69
2022/05/20 10:28:03;;;;;;;1999.90;999.90;;;26.80;99.90;;;;;;5034266;28;20407;-69
2022/05/20 10:33:38;;;;;;;1999.90;999.90;;;27.30;99.90;;;;;;5034831;28;20517;-73
2022/05/20 10:36:16;;;;;;;1999.90;999.90;;;27.80;99.90;;;;;;5034096;28;20949;-74
2022/05/20 10:39:07;;;;;;;1999.90;999.90;;;28.00;99.90;;;;;;5034326;28;20521;-73
2022/05/20 10:41:39;;;;;;;1999.90;999.90;;;28.00;99.90;;;;;;5030345;28;20506;-72
2022/05/20 10:50:14;;;;;;;1999.90;999.90;;;28.30;99.90;;;;;;5033964;28;20406;-72
2022/05/20 10:52:51;;;;;;;1999.90;999.90;;;28.30;99.90;;;;;;5034039;28;20403;-73
2022/05/20 10:55:20;;;;;;;1999.90;999.90;;;28.20;99.90;;;;;;5033735;28;20241;-72
2022/05/20 10:58:09;;;;;;;1999.90;999.90;;;28.10;99.90;;;;;;5034012;28;20395;-73
2022/05/20 11:00:59;;;;;;;1999.90;999.90;;;28.00;99.90;;;;;;5034006;28;20432;-72
2022/05/20 11:03:39;;;;;;;1999.90;999.90;;;28.10;99.90;;;;;;5033942;28;20403;-72
2022/05/20 11:06:19;;;;;;;1999.90;999.90;;;28.20;99.90;;;;;;5033508;28;20893;-72
2022/05/20 11:08:54;;;;;;;1999.90;999.90;;;28.10;99.90;;;;;;5033706;28;20522;-72
2022/05/20 11:11:47;;;;;;;1999.90;999.90;;;27.90;99.90;;;;;;5033539;28;20409;-72
2022/05/20 11:14:50;;;;;;;1999.90;999.90;;;27.70;99.90;;;;;;5029188;28;20413;-72
2022/05/20 11:17:40;;;;;;;1999.90;999.90;;;27.40;99.90;;;;;;5033202;28;20394;-72
2022/05/20 11:20:40;;;;;;;1999.90;999.90;;;27.20;99.90;;;;;;5032840;28;20449;-72
2022/05/20 11:23:22;;;;;;;1999.90;999.90;;;27.00;99.90;;;;;;5032933;28;20407;-71
2022/05/20 11:25:56;;;;;;;1999.90;999.90;;;26.80;99.90;;;;;;5032913;28;20407;-71
2022/05/20 11:28:52;;;;;;;1999.90;999.90;;;26.80;99.90;;;;;;5032369;28;20451;-72
2022/05/20 11:31:32;;;;;;;1999.90;999.90;;;27.20;99.90;;;;;;5032706;28;20377;-72
2022/05/20 11:34:19;;;;;;;1999.90;999.90;;;27.80;99.90;;;;;;5032443;28;20766;-71
2022/05/20 11:37:08;;;;;;;1999.90;999.90;;;28.30;99.90;;;;;;5032420;28;20435;-73
2022/05/20 11:39:53;;;;;;;1999.90;999.90;;;28.70;99.90;;;;;;5032836;28;20427;-72
2022/05/20 11:42:34;;;;;;;1999.90;999.90;;;28.60;99.90;;;;;;5032005;28;20395;-72
2022/05/20 11:45:11;;;;;;;1999.90;999.90;;;28.40;99.90;;;;;;5032442;28;20928;-71
2022/05/20 11:47:42;;;;;;;1999.90;999.90;;;28.00;99.90;;;;;;5032418;28;20464;-72
2022/05/20 11:50:41;;;;;;;1999.90;999.90;;;27.70;99.90;;;;;;5032039;28;20403;-71
2022/05/20 11:53:18;;;;;;;1999.90;999.90;;;27.50;99.90;;;;;;5032611;28;20928;-70
2022/05/20 11:55:55;;;;;;;1999.90;999.90;;;27.30;99.90;;;;;;5032068;28;20521;-70
2022/05/20 11:58:27;;;;;;;1999.90;999.90;;;27.00;99.90;;;;;;5032210;28;20433;-69
2022/05/20 12:00:54;;;;;;;1999.90;999.90;;;26.70;99.90;;;;;;5032378;28;20407;-70
2022/05/20 12:03:26;;;;;;;1999.90;999.90;;;26.50;99.90;;;;;;5032516;28;20461;-69
2022/05/20 12:05:53;;;;;;;1999.90;999.90;;;26.20;99.90;;;;;;5031702;28;20773;-70
2022/05/20 12:08:37;;;;;;;1999.90;999.90;;;25.90;99.90;;;;;;5031990;28;20428;-70
2022/05/20 12:11:21;;;;;;;1999.90;999.90;;;25.80;99.90;;;;;;5031460;28;20798;-71
2022/05/20 12:14:19;;;;;;;1999.90;999.90;;;25.70;99.90;;;;;;5031500;28;20376;-71
2022/05/20 12:16:54;;;;;;;1999.90;999.90;;;25.70;99.90;;;;;;5032154;28;20421;-71
2022/05/20 12:25:36;;;;;;;1999.90;999.90;;;25.90;99.90;;;;;;5031910;28;20915;-69
2022/05/20 12:28:07;;;;;;;1999.90;999.90;;;25.90;99.90;;;;;;5031370;28;20839;-71
2022/05/20 12:31:08;;;;;;;1999.90;999.90;;;25.70;99.90;;;;;;5032094;28;20522;-73
2022/05/20 12:33:51;;;;;;;1999.90;999.90;;;25.40;99.90;;;;;;5006215;28;20744;-71
2022/05/20 12:36:29;;;;;;;1999.90;999.90;;;24.90;99.90;;;;;;5031436;28;20411;-70
2022/05/20 12:39:06;;;;;;;1999.90;999.90;;;24.60;99.90;;;;;;5031510;28;20396;-71
2022/05/20 12:41:33;;;;;;;1999.90;999.90;;;24.30;99.90;;;;;;5031230;28;20424;-71
2022/05/20 12:44:20;;;;;;;1999.90;999.90;;;24.10;99.90;;;;;;5031362;28;20406;-70
2022/05/20 12:47:22;;;;;;;1999.90;999.90;;;24.00;99.90;;;;;;5030906;28;20460;-70
2022/05/20 12:49:48;;;;;;;1999.90;999.90;;;23.90;99.90;;;;;;5027778;28;20404;-69
2022/05/20 12:52:27;;;;;;;1999.90;999.90;;;23.90;99.90;;;;;;5029163;28;20754;-70
2022/05/20 12:54:59;;;;;;;1999.90;999.90;;;23.90;99.90;;;;;;5026536;28;20204;-70
2022/05/20 12:57:34;;;;;;;1999.90;999.90;;;23.90;99.90;;;;;;5027361;28;20763;-70
2022/05/20 13:00:12;;;;;;;1999.90;999.90;;;23.90;99.90;;;;;;5028003;28;20963;-70
2022/05/20 13:02:59;;;;;;;1999.90;999.90;;;24.00;99.90;;;;;;5027559;28;20384;-70